Time;durP1;ratioP1;P1;durP2;ratioP2;P2;SDS_P1;SDS_P2;PMS_P1;PMS_P2;Temp;Humidity;BMP_temperature;BMP_pressure;BME280_temperature;BME280_humidity;BME280_pressure;Samples;Min_cycle;Max_cycle;Signal;HPM_P1;HPM_P2
2022/07/23 00:02:17;;;;;;;12.98;8.68;;;;;;;13.70;98.52;101752.09;5113043;28;20881;-43
2022/07/23 00:04:42;;;;;;;13.20;8.55;;;;;;;13.65;98.66;101742.47;5113711;28;20035;-42
2022/07/23 00:07:07;;;;;;;14.00;9.27;;;;;;;13.68;98.96;101752.06;5112935;28;20041;-44
2022/07/23 00:09:33;;;;;;;15.20;9.38;;;;;;;13.65;98.75;101758.03;5112543;28;20077;-45
2022/07/23 00:11:58;;;;;;;17.85;9.23;;;;;;;13.64;99.20;101763.16;5113174;28;20059;-42
2022/07/23 00:14:23;;;;;;;14.48;9.20;;;;;;;13.58;99.30;101765.56;5112587;28;20032;-43
2022/07/23 00:16:49;;;;;;;16.92;9.45;;;;;;;13.54;99.27;101758.53;5113227;28;20432;-43
2022/07/23 00:19:15;;;;;;;14.02;9.63;;;;;;;13.47;99.67;101760.03;5113157;28;20032;-42
2022/07/23 00:21:41;;;;;;;15.38;9.63;;;;;;;13.55;100.00;101760.28;5112955;28;20030;-42
2022/07/23 00:24:06;;;;;;;14.10;9.38;;;;;;;13.56;100.00;101756.88;5113048;28;20028;-43
2022/07/23 00:26:31;;;;;;;13.57;10.35;;;;;;;13.62;100.00;101759.63;5113123;28;20076;-45
2022/07/23 00:28:56;;;;;;;17.60;9.90;;;;;;;13.54;100.00;101761.09;5112657;28;20049;-45
2022/07/23 00:31:22;;;;;;;14.55;9.77;;;;;;;13.44;99.85;101752.16;5112948;28;20038;-42
2022/07/23 00:33:47;;;;;;;14.95;9.27;;;;;;;13.32;99.96;101747.44;5113125;28;20383;-45
2022/07/23 00:36:12;;;;;;;18.45;9.63;;;;;;;13.23;100.00;101748.00;5112496;28;20027;-43
2022/07/23 00:38:38;;;;;;;14.60;10.30;;;;;;;13.16;100.00;101746.06;5112936;28;20024;-42
2022/07/23 00:41:03;;;;;;;13.18;9.52;;;;;;;13.08;100.00;101745.81;5112495;28;20107;-43
2022/07/23 00:43:28;;;;;;;14.07;9.70;;;;;;;12.99;100.00;101741.19;5112883;28;20024;-46
2022/07/23 00:45:54;;;;;;;13.95;9.65;;;;;;;12.92;100.00;101748.69;5113064;28;20371;-43
2022/07/23 00:48:19;;;;;;;17.70;9.25;;;;;;;12.84;100.00;101748.41;5112407;28;20077;-42
2022/07/23 00:50:44;;;;;;;12.93;10.27;;;;;;;12.81;100.00;101748.31;5112956;28;20031;-43
2022/07/23 00:53:10;;;;;;;17.60;11.02;;;;;;;12.82;100.00;101750.97;5112932;28;20130;-44
2022/07/23 00:55:36;;;;;;;15.05;10.57;;;;;;;12.79;100.00;101756.00;5112328;28;20032;-42
2022/07/23 00:58:01;;;;;;;22.63;11.52;;;;;;;12.82;100.00;101750.97;5112524;28;20023;-42
2022/07/23 01:00:27;;;;;;;18.30;11.52;;;;;;;12.86;100.00;101751.94;5113143;28;20026;-44
2022/07/23 01:02:52;;;;;;;18.30;11.20;;;;;;;12.85;100.00;101745.00;5112523;28;20034;-42
2022/07/23 01:05:21;;;;;;;19.35;11.52;;;;;;;12.97;100.00;101740.25;5112515;28;20027;-43
2022/07/23 01:07:47;;;;;;;17.30;12.45;;;;;;;13.00;100.00;101735.19;5113018;28;20042;-42
2022/07/23 01:10:30;;;;;;;20.50;12.27;;;;;;;13.01;100.00;101731.78;5112160;28;20467;-44
2022/07/23 01:13:00;;;;;;;20.33;11.82;;;;;;;13.02;100.00;101743.88;5112435;28;20051;-43
2022/07/23 01:15:26;;;;;;;19.02;12.20;;;;;;;13.07;100.00;101738.84;5112737;28;20047;-43
2022/07/23 01:17:51;;;;;;;17.70;10.95;;;;;;;12.93;100.00;101727.16;5112231;28;20070;-43
2022/07/23 01:20:17;;;;;;;16.17;11.10;;;;;;;12.82;100.00;101738.03;5113305;28;20016;-43
2022/07/23 01:22:43;;;;;;;17.52;10.57;;;;;;;12.80;100.00;101737.06;5116628;28;20455;-42
2022/07/23 01:25:08;;;;;;;18.52;11.15;;;;;;;12.76;100.00;101739.53;5115853;28;20058;-42
2022/07/23 01:27:34;;;;;;;16.35;11.05;;;;;;;12.77;100.00;101736.97;5116230;28;20020;-43
2022/07/23 01:30:00;;;;;;;20.27;11.85;;;;;;;12.80;100.00;101736.22;5116563;28;20463;-43
2022/07/23 01:32:26;;;;;;;20.08;12.05;;;;;;;12.76;100.00;101737.81;5115843;28;20019;-43
2022/07/23 01:34:51;;;;;;;15.57;11.15;;;;;;;12.73;100.00;101735.13;5116133;28;20023;-44
2022/07/23 01:37:16;;;;;;;15.05;10.77;;;;;;;12.58;100.00;101734.59;5115601;28;20073;-42
2022/07/23 01:39:42;;;;;;;16.27;11.73;;;;;;;12.54;100.00;101727.50;5115920;28;20467;-47
2022/07/23 01:42:07;;;;;;;17.65;10.60;;;;;;;12.43;100.00;101734.91;5116269;28;20023;-43
2022/07/23 01:44:33;;;;;;;16.00;10.55;;;;;;;12.41;100.00;101732.25;5115650;28;20042;-43
2022/07/23 01:46:58;;;;;;;14.27;10.90;;;;;;;12.37;100.00;101725.22;5116087;28;20089;-42
2022/07/23 01:49:23;;;;;;;16.40;12.30;;;;;;;12.37;100.00;101729.50;5115931;28;20026;-44
2022/07/23 01:52:00;;;;;;;21.75;12.57;;;;;;;12.42;100.00;101744.38;5115604;28;20118;-43
2022/07/23 01:54:31;;;;;;;19.42;13.38;;;;;;;12.45;100.00;101733.25;5115516;28;20459;-43
2022/07/23 01:56:57;;;;;;;20.38;14.27;;;;;;;12.51;100.00;101729.19;5116209;28;20028;-42
2022/07/23 01:59:22;;;;;;;19.90;12.93;;;;;;;12.47;100.00;101729.00;5115182;28;20034;-42
2022/07/23 02:01:50;;;;;;;20.92;14.13;;;;;;;12.43;100.00;101725.44;5115664;28;20027;-42
2022/07/23 02:04:19;;;;;;;22.23;12.75;;;;;;;12.42;100.00;101731.44;5115528;28;20085;-43
2022/07/23 02:06:44;;;;;;;18.25;11.68;;;;;;;12.28;100.00;101730.06;5115142;28;20105;-42
2022/07/23 02:09:10;;;;;;;18.13;12.35;;;;;;;12.26;100.00;101727.41;5115128;28;20421;-42
2022/07/23 02:11:35;;;;;;;19.27;12.32;;;;;;;12.17;100.00;101722.81;5115231;28;20093;-44
2022/07/23 02:14:00;;;;;;;17.80;11.18;;;;;;;12.07;100.00;101720.69;5115062;28;20035;-43
2022/07/23 02:16:26;;;;;;;18.67;13.38;;;;;;;12.12;100.00;101719.16;5115175;28;20039;-42
2022/07/23 02:18:51;;;;;;;24.48;13.75;;;;;;;12.15;100.00;101710.66;5115537;28;20382;-43
2022/07/23 02:21:16;;;;;;;22.40;15.05;;;;;;;12.17;100.00;101721.91;5114572;28;20059;-43
2022/07/23 02:23:41;;;;;;;18.23;12.77;;;;;;;12.12;100.00;101719.16;5115490;28;20023;-44
2022/07/23 02:26:07;;;;;;;16.48;11.52;;;;;;;12.00;100.00;101718.69;5115300;28;20063;-42
2022/07/23 02:28:32;;;;;;;16.60;12.00;;;;;;;11.89;100.00;101714.78;5114639;28;20027;-43
2022/07/23 02:30:57;;;;;;;13.32;10.63;;;;;;;11.78;100.00;101720.41;5114760;28;20024;-46
2022/07/23 02:33:22;;;;;;;17.27;12.20;;;;;;;11.80;100.00;101717.88;5115030;28;20030;-43
2022/07/23 02:35:48;;;;;;;21.67;13.80;;;;;;;11.71;100.00;101723.59;5114351;28;20388;-41
2022/07/23 02:38:13;;;;;;;19.42;14.18;;;;;;;11.75;100.00;101719.41;5114767;28;20035;-45
2022/07/23 02:40:38;;;;;;;17.63;13.07;;;;;;;11.64;100.00;101724.16;5114758;28;20023;-42
2022/07/23 02:43:03;;;;;;;14.40;11.25;;;;;;;11.52;100.00;101714.25;5114654;28;20020;-42
2022/07/23 02:45:29;;;;;;;17.63;11.38;;;;;;;11.42;100.00;101717.28;5114851;28;20024;-43
2022/07/23 02:47:54;;;;;;;16.13;11.20;;;;;;;11.34;100.00;101729.88;5114608;28;20026;-47
2022/07/23 02:50:19;;;;;;;14.60;12.10;;;;;;;11.40;100.00;101734.38;5114394;28;20053;-43
2022/07/23 02:52:45;;;;;;;21.17;14.18;;;;;;;11.39;100.00;101732.63;5114728;28;20103;-43
2022/07/23 02:55:10;;;;;;;17.83;13.98;;;;;;;11.36;100.00;101735.97;5114376;28;20114;-45
2022/07/23 02:57:36;;;;;;;22.02;14.82;;;;;;;11.38;100.00;101730.88;5114322;28;20023;-42
2022/07/23 03:00:03;;;;;;;21.63;14.40;;;;;;;11.35;100.00;101726.47;5114525;28;20070;-43
2022/07/23 03:02:28;;;;;;;20.37;15.60;;;;;;;11.32;100.00;101731.50;5113995;28;20023;-43
2022/07/23 03:04:53;;;;;;;21.20;15.55;;;;;;;11.33;100.00;101741.00;5114347;28;20439;-42
2022/07/23 03:07:19;;;;;;;21.85;16.30;;;;;;;11.31;100.00;101732.31;5114263;28;20066;-42
2022/07/23 03:09:44;;;;;;;22.25;16.00;;;;;;;11.23;100.00;101742.31;5114098;28;20028;-42
2022/07/23 03:12:09;;;;;;;19.60;15.70;;;;;;;11.20;100.00;101740.50;5114135;28;20040;-43
2022/07/23 03:14:35;;;;;;;27.92;20.48;;;;;;;11.35;100.00;101741.97;5114274;28;20481;-43
2022/07/23 03:17:00;;;;;;;24.83;17.60;;;;;;;11.22;100.00;101747.41;5113556;28;20035;-43
2022/07/23 03:19:26;;;;;;;19.10;14.52;;;;;;;11.17;100.00;101740.38;5113957;28;20026;-44
2022/07/23 03:21:51;;;;;;;23.73;16.30;;;;;;;11.18;100.00;101734.41;5114205;28;20023;-43
2022/07/23 03:24:19;;;;;;;23.33;16.25;;;;;;;11.10;100.00;101738.34;5113597;28;20057;-45
2022/07/23 03:26:45;;;;;;;17.60;14.80;;;;;;;10.99;100.00;101737.03;5113967;28;20400;-43
2022/07/23 03:29:10;;;;;;;21.55;13.95;;;;;;;10.91;100.00;101740.97;5114117;28;20455;-42
2022/07/23 03:31:36;;;;;;;19.55;15.10;;;;;;;10.91;100.00;101746.13;5113335;28;20081;-42
2022/07/23 03:34:01;;;;;;;22.85;16.83;;;;;;;10.93;100.00;101740.22;5113651;28;20030;-43
2022/07/23 03:36:27;;;;;;;31.42;22.42;;;;;;;11.03;100.00;101741.50;5113596;28;20051;-44
2022/07/23 03:38:52;;;;;;;34.08;23.00;;;;;;;11.05;100.00;101745.00;5113628;28;20028;-42
2022/07/23 03:41:18;;;;;;;30.95;21.75;;;;;;;11.04;100.00;101745.84;5113462;28;20020;-43
2022/07/23 03:43:44;;;;;;;31.77;21.30;;;;;;;11.06;100.00;101741.63;5113223;28;20380;-43
2022/07/23 03:46:09;;;;;;;39.25;27.25;;;;;;;11.15;100.00;101744.56;5113162;28;20364;-43
2022/07/23 03:48:35;;;;;;;35.72;25.73;;;;;;;11.18;100.00;101744.72;5113587;28;20072;-45
2022/07/23 03:51:00;;;;;;;36.60;24.92;;;;;;;11.18;100.00;101749.88;5113020;28;20080;-42
2022/07/23 03:53:25;;;;;;;35.67;23.70;;;;;;;11.15;100.00;101743.72;5113231;28;20020;-43
2022/07/23 03:55:50;;;;;;;36.03;24.63;;;;;;;11.18;100.00;101747.31;5113617;28;20493;-46
2022/07/23 03:58:16;;;;;;;33.28;22.90;;;;;;;11.10;100.00;101740.94;5112679;28;20027;-44
2022/07/23 04:00:41;;;;;;;43.05;27.45;;;;;;;11.25;100.00;101737.25;5113450;28;20475;-43
2022/07/23 04:03:06;;;;;;;41.08;27.75;;;;;;;11.25;100.00;101744.97;5113456;28;20035;-43
2022/07/23 04:05:31;;;;;;;40.63;27.67;;;;;;;11.20;100.00;101743.06;5112810;28;20094;-43
2022/07/23 04:07:57;;;;;;;43.53;28.42;;;;;;;11.20;100.00;101753.38;5113449;28;20477;-43
2022/07/23 04:10:22;;;;;;;42.08;28.35;;;;;;;11.32;100.00;101749.56;5113205;28;20023;-47
2022/07/23 04:12:47;;;;;;;42.33;29.45;;;;;;;11.35;100.00;101754.88;5112742;28;20490;-45
2022/07/23 04:15:13;;;;;;;36.03;27.15;;;;;;;11.37;100.00;101755.78;5112890;28;20118;-44
2022/07/23 04:17:38;;;;;;;36.67;27.30;;;;;;;11.30;100.00;101758.97;5113342;28;20054;-42
2022/07/23 04:20:04;;;;;;;36.50;26.55;;;;;;;11.26;100.00;101760.53;5112673;28;20378;-42
2022/07/23 04:22:30;;;;;;;35.67;25.45;;;;;;;11.20;100.00;101763.72;5113107;28;20027;-45
2022/07/23 04:24:55;;;;;;;37.05;25.65;;;;;;;11.20;100.00;101768.88;5113394;28;20023;-44
2022/07/23 04:27:20;;;;;;;40.78;27.42;;;;;;;11.24;100.00;101763.84;5112658;28;20034;-46
2022/07/23 04:29:45;;;;;;;38.63;25.95;;;;;;;11.29;100.00;101762.34;5113064;28;20020;-43
2022/07/23 04:32:11;;;;;;;40.15;26.83;;;;;;;11.28;100.00;101760.59;5113162;28;20035;-42
2022/07/23 04:34:36;;;;;;;41.65;27.30;;;;;;;11.35;100.00;101767.78;5112527;28;20023;-45
2022/07/23 04:37:01;;;;;;;41.65;28.23;;;;;;;11.38;100.00;101773.03;5112956;28;20038;-43
2022/07/23 04:39:26;;;;;;;47.13;31.17;;;;;;;11.50;100.00;101777.81;5113177;28;20024;-43
2022/07/23 04:41:52;;;;;;;45.13;30.15;;;;;;;11.52;100.00;101771.91;5112673;28;20028;-42
2022/07/23 04:44:17;;;;;;;48.70;30.92;;;;;;;11.57;100.00;101777.28;5112682;28;20028;-42
2022/07/23 04:46:42;;;;;;;48.72;31.95;;;;;;;11.61;100.00;101779.16;5113051;28;20096;-42
2022/07/23 04:49:08;;;;;;;62.10;33.30;;;;;;;11.70;100.00;101781.22;5112085;28;20407;-45
2022/07/23 04:51:33;;;;;;;48.25;32.40;;;;;;;11.72;100.00;101789.91;5112910;28;20026;-45
2022/07/23 04:53:58;;;;;;;51.35;33.50;;;;;;;11.79;100.00;101781.59;5113381;28;20463;-42
2022/07/23 04:56:23;;;;;;;54.50;34.30;;;;;;;11.94;100.00;101788.16;5116275;28;20379;-43
2022/07/23 04:58:49;;;;;;;55.20;34.97;;;;;;;11.96;100.00;101789.16;5117283;28;20030;-42
2022/07/23 05:01:14;;;;;;;53.92;33.15;;;;;;;11.99;100.00;101787.56;5116195;28;20158;-44
2022/07/23 05:03:39;;;;;;;52.20;34.75;;;;;;;12.01;100.00;101782.47;5116724;28;20026;-42
2022/07/23 05:06:05;;;;;;;47.70;32.55;;;;;;;12.07;100.00;101786.97;5116632;28;20019;-44
2022/07/23 05:08:30;;;;;;;52.20;34.38;;;;;;;12.12;100.00;101796.69;5116040;28;20185;-47
2022/07/23 05:10:55;;;;;;;52.45;34.75;;;;;;;12.17;100.00;101795.16;5116490;28;20042;-46
2022/07/23 05:13:21;;;;;;;52.28;34.00;;;;;;;12.19;100.00;101793.50;5116509;28;20031;-43
2022/07/23 05:15:46;;;;;;;52.45;34.17;;;;;;;12.23;100.00;101796.22;5116276;28;20035;-43
2022/07/23 05:18:12;;;;;;;55.00;36.25;;;;;;;12.28;100.00;101798.13;5116332;28;20019;-45
2022/07/23 05:20:37;;;;;;;49.58;33.58;;;;;;;12.33;100.00;101793.13;5116547;28;20031;-42
2022/07/23 05:23:03;;;;;;;50.42;34.88;;;;;;;12.37;100.00;101799.28;5116105;28;20073;-44
2022/07/23 05:25:28;;;;;;;51.42;35.47;;;;;;;12.43;100.00;101796.94;5116289;28;20036;-44
2022/07/23 05:27:54;;;;;;;52.20;35.60;;;;;;;12.48;100.00;101801.44;5116580;28;20028;-48
2022/07/23 05:30:19;;;;;;;49.60;33.88;;;;;;;12.53;100.00;101799.06;5115733;28;20580;-45
2022/07/23 05:32:45;;;;;;;52.30;34.08;;;;;;;12.56;100.00;101799.16;5116116;28;20022;-44
2022/07/23 05:35:10;;;;;;;54.25;36.55;;;;;;;12.62;100.00;101801.09;5116075;28;20023;-42
2022/07/23 05:37:35;;;;;;;55.58;36.35;;;;;;;12.72;100.00;101800.59;5115803;28;20016;-44
2022/07/23 05:40:03;;;;;;;51.08;35.63;;;;;;;12.79;100.00;101805.16;5116031;28;20027;-41
2022/07/23 05:42:28;;;;;;;52.95;37.30;;;;;;;12.87;100.00;101808.00;5116305;28;20068;-43
2022/07/23 05:44:53;;;;;;;54.78;36.03;;;;;;;12.93;100.00;101805.66;5115635;28;20103;-46
2022/07/23 05:47:18;;;;;;;56.65;35.40;;;;;;;12.98;100.00;101808.41;5115637;28;20016;-43
2022/07/23 05:49:44;;;;;;;50.17;33.38;;;;;;;13.02;100.00;101807.69;5116004;28;20387;-43
2022/07/23 05:52:09;;;;;;;52.30;32.92;;;;;;;13.08;100.00;101813.09;5115579;28;20031;-45
2022/07/23 05:54:35;;;;;;;52.63;34.90;;;;;;;13.17;100.00;101821.16;5115740;28;20024;-43
2022/07/23 05:57:00;;;;;;;52.78;34.28;;;;;;;13.24;100.00;101817.06;5115850;28;20035;-42
2022/07/23 05:59:26;;;;;;;48.42;31.27;;;;;;;13.33;100.00;101821.69;5115074;28;20028;-46
2022/07/23 06:01:51;;;;;;;48.35;32.90;;;;;;;13.41;100.00;101824.56;5115809;28;20023;-45
2022/07/23 06:04:16;;;;;;;46.83;32.97;;;;;;;13.48;100.00;101826.56;5115373;28;20016;-43
2022/07/23 06:06:41;;;;;;;47.33;32.83;;;;;;;13.56;100.00;101830.25;5114280;28;20501;-44
2022/07/23 06:09:07;;;;;;;51.40;31.63;;;;;;;13.56;100.00;101829.41;5115634;28;20024;-46
2022/07/23 06:11:32;;;;;;;47.53;30.90;;;;;;;13.67;100.00;101833.19;5114896;28;20058;-47
2022/07/23 06:13:58;;;;;;;45.28;29.77;;;;;;;13.74;100.00;101832.56;5115575;28;20092;-43
2022/07/23 06:16:23;;;;;;;43.60;30.13;;;;;;;13.80;100.00;101837.97;5115311;28;20077;-44
2022/07/23 06:18:48;;;;;;;44.40;29.17;;;;;;;13.91;100.00;101834.84;5114892;28;20063;-44
2022/07/23 06:21:14;;;;;;;35.50;27.10;;;;;;;13.98;100.00;101829.88;5115141;28;20040;-44
2022/07/23 06:23:39;;;;;;;40.85;29.20;;;;;;;14.08;100.00;101843.13;5115571;28;20024;-44
2022/07/23 06:26:04;;;;;;;44.33;25.67;;;;;;;14.05;100.00;101833.53;5114594;28;20023;-46
2022/07/23 06:28:30;;;;;;;37.83;26.48;;;;;;;14.15;100.00;101838.19;5114926;28;20031;-44
2022/07/23 06:30:55;;;;;;;43.65;28.67;;;;;;;14.22;100.00;101843.56;5115271;28;20088;-44
2022/07/23 06:33:20;;;;;;;39.65;28.25;;;;;;;14.29;100.00;101835.13;5114508;28;20035;-43
2022/07/23 06:35:46;;;;;;;41.05;28.27;;;;;;;14.42;100.00;101845.03;5114842;28;20035;-46
2022/07/23 06:38:11;;;;;;;35.10;25.38;;;;;;;14.49;100.00;101839.19;5115180;28;20095;-43
2022/07/23 06:40:36;;;;;;;35.50;23.30;;;;;;;14.53;100.00;101834.09;5114447;28;20030;-42
2022/07/23 06:43:02;;;;;;;29.40;20.58;;;;;;;14.60;100.00;101838.63;5114800;28;20055;-42
2022/07/23 06:45:27;;;;;;;28.67;19.58;;;;;;;14.66;100.00;101836.25;5114701;28;20098;-48
2022/07/23 06:47:52;;;;;;;36.45;21.20;;;;;;;14.78;100.00;101844.38;5114271;28;20031;-43
2022/07/23 06:50:18;;;;;;;29.25;18.80;;;;;;;14.84;100.00;101840.19;5114248;28;20024;-44
2022/07/23 06:52:43;;;;;;;30.08;19.38;;;;;;;14.98;100.00;101838.88;5114928;28;20111;-42
2022/07/23 06:55:09;;;;;;;27.33;17.38;;;;;;;15.03;100.00;101838.97;5114155;28;20154;-44
2022/07/23 06:57:34;;;;;;;25.05;16.60;;;;;;;15.08;100.00;101845.16;5114362;28;20031;-42
2022/07/23 06:59:59;;;;;;;29.60;18.48;;;;;;;15.20;100.00;101848.09;5114530;28;20031;-44
2022/07/23 07:02:25;;;;;;;29.40;18.70;;;;;;;15.31;100.00;101832.78;5113704;28;20027;-44
2022/07/23 07:04:50;;;;;;;24.55;14.48;;;;;;;15.42;100.00;101849.53;5114544;28;20498;-42
2022/07/23 07:07:15;;;;;;;17.08;10.27;;;;;;;15.47;98.43;101854.88;5114541;28;20035;-42
2022/07/23 07:09:41;;;;;;;26.40;11.93;;;;;;;15.57;100.00;101845.56;5113861;28;20105;-43
2022/07/23 07:12:06;;;;;;;17.65;10.07;;;;;;;15.69;97.66;101840.69;5114263;28;20048;-42
2022/07/23 07:14:31;;;;;;;20.90;12.27;;;;;;;15.82;99.28;101848.81;5114152;28;20031;-46
2022/07/23 07:16:57;;;;;;;21.13;10.60;;;;;;;15.84;96.39;101844.53;5113504;28;20059;-43
2022/07/23 07:19:22;;;;;;;18.35;10.05;;;;;;;16.00;91.85;101845.75;5113908;28;20024;-45
2022/07/23 07:21:47;;;;;;;17.55;11.27;;;;;;;16.13;94.46;101840.88;5114240;28;20451;-43
2022/07/23 07:24:12;;;;;;;14.50;9.65;;;;;;;16.24;94.16;101835.03;5113839;28;20028;-42
2022/07/23 07:26:39;;;;;;;19.42;10.88;;;;;;;16.29;91.18;101833.41;5114047;28;20023;-48
2022/07/23 07:29:05;;;;;;;18.65;10.60;;;;;;;16.38;90.53;101845.75;5113504;28;20015;-41
2022/07/23 07:31:30;;;;;;;18.20;8.45;;;;;;;16.48;88.11;101849.44;5113683;28;20026;-41
2022/07/23 07:33:56;;;;;;;15.30;7.82;;;;;;;16.59;85.94;101848.81;5113997;28;20027;-43
2022/07/23 07:36:22;;;;;;;15.10;7.10;;;;;;;16.75;81.72;101855.19;5112969;28;20028;-44
2022/07/23 07:38:47;;;;;;;15.80;8.70;;;;;;;16.85;84.41;101857.97;5113811;28;20032;-42
2022/07/23 07:41:12;;;;;;;13.75;8.63;;;;;;;16.90;82.69;101854.66;5113513;28;20023;-44
2022/07/23 07:43:38;;;;;;;18.75;8.57;;;;;;;17.05;83.28;101858.41;5113287;28;20030;-43
2022/07/23 07:46:04;;;;;;;17.80;8.63;;;;;;;17.16;81.88;101854.28;5113492;28;20049;-42
2022/07/23 07:48:29;;;;;;;14.70;9.73;;;;;;;17.23;81.41;101855.25;5113509;28;20039;-43
2022/07/23 07:50:54;;;;;;;15.23;9.02;;;;;;;17.26;79.80;101858.81;5113104;28;20030;-45
2022/07/23 07:53:20;;;;;;;18.08;8.77;;;;;;;17.34;79.70;101856.34;5113394;28;20114;-45
2022/07/23 07:55:45;;;;;;;12.35;7.30;;;;;;;17.45;79.65;101848.69;5113502;28;20023;-42
2022/07/23 07:58:11;;;;;;;15.90;7.78;;;;;;;17.53;77.07;101851.44;5113039;28;20489;-42
2022/07/23 08:00:36;;;;;;;12.68;7.30;;;;;;;17.59;75.64;101846.34;5113208;28;20387;-43
2022/07/23 08:03:02;;;;;;;14.07;7.20;;;;;;;17.84;79.16;101854.53;5113330;28;20062;-43
2022/07/23 08:05:29;;;;;;;13.20;6.70;;;;;;;17.89;76.35;101860.72;5113026;28;20031;-42
2022/07/23 08:07:56;;;;;;;13.68;8.05;;;;;;;18.00;73.90;101863.50;5113312;28;20028;-42
2022/07/23 08:10:21;;;;;;;16.63;7.93;;;;;;;18.13;73.13;101856.72;5113046;28;20356;-46
2022/07/23 08:12:48;;;;;;;14.20;7.82;;;;;;;18.19;71.95;101870.78;5112587;28;20051;-41
2022/07/23 08:15:16;;;;;;;17.75;7.78;;;;;;;18.13;69.84;101864.56;5112875;28;20459;-46
2022/07/23 08:17:43;;;;;;;11.43;7.07;;;;;;;18.14;71.27;101871.53;5113214;28;20051;-41
2022/07/23 08:20:10;;;;;;;18.55;6.88;;;;;;;18.34;74.58;101875.31;5112368;28;20484;-43
2022/07/23 08:22:43;;;;;;;15.35;8.80;;;;;;;18.44;74.33;101873.72;5113249;28;20054;-41
2022/07/23 08:25:09;;;;;;;13.45;8.20;;;;;;;18.53;72.43;101875.59;5112663;28;20035;-44
2022/07/23 08:27:34;;;;;;;14.02;8.20;;;;;;;18.59;73.44;101880.84;5112826;28;20049;-42
2022/07/23 08:29:59;;;;;;;15.15;8.18;;;;;;;18.71;73.82;101874.94;5112615;28;20102;-42
2022/07/23 08:32:24;;;;;;;22.45;8.77;;;;;;;18.75;71.02;101887.16;5112654;28;20804;-42
2022/07/23 08:34:50;;;;;;;15.32;8.98;;;;;;;18.91;71.26;101880.41;5112889;28;20112;-41
2022/07/23 08:37:15;;;;;;;12.02;8.38;;;;;;;18.95;68.21;101884.81;5112830;28;20348;-45
2022/07/23 08:39:40;;;;;;;13.55;8.93;;;;;;;19.19;70.33;101878.13;5112623;28;20085;-42
2022/07/23 08:42:07;;;;;;;12.45;8.80;;;;;;;19.29;71.30;101893.03;5112841;28;20039;-43
2022/07/23 08:44:35;;;;;;;15.32;8.88;;;;;;;19.23;69.26;101900.81;5112929;28;20070;-45
2022/07/23 08:47:00;;;;;;;15.30;8.60;;;;;;;19.21;67.06;101899.91;5112478;28;20425;-43
2022/07/23 08:49:26;;;;;;;14.38;7.93;;;;;;;19.31;69.83;101899.13;5112793;28;20467;-44
2022/07/23 08:51:52;;;;;;;13.40;7.85;;;;;;;19.34;67.77;101899.19;5113105;28;20031;-40
2022/07/23 08:54:17;;;;;;;13.57;7.05;;;;;;;19.57;67.86;101906.34;5112306;28;20062;-45
2022/07/23 08:56:43;;;;;;;13.18;7.00;;;;;;;19.74;69.37;101898.66;5112754;28;20023;-40
2022/07/23 08:59:08;;;;;;;12.48;6.75;;;;;;;19.93;66.98;101901.47;5112798;28;20031;-42
2022/07/23 09:01:33;;;;;;;12.95;7.47;;;;;;;19.95;67.04;101894.47;5112167;28;20030;-42
2022/07/23 09:03:59;;;;;;;11.45;6.88;;;;;;;20.07;66.01;101892.81;5112812;28;20068;-45
2022/07/23 09:06:24;;;;;;;14.15;7.25;;;;;;;20.10;65.33;101897.22;5112852;28;20024;-46
2022/07/23 09:08:49;;;;;;;10.77;6.72;;;;;;;20.25;66.56;101892.97;5112169;28;20371;-46
2022/07/23 09:11:18;;;;;;;13.80;6.75;;;;;;;20.43;67.60;101894.81;5112467;28;20169;-41
2022/07/23 09:13:54;;;;;;;13.85;7.28;;;;;;;20.55;66.95;101892.22;5112769;28;20419;-41
2022/07/23 09:16:25;;;;;;;13.15;7.55;;;;;;;20.50;62.99;101901.81;5111869;28;20027;-42
2022/07/23 09:18:53;;;;;;;14.18;7.45;;;;;;;20.69;63.93;101893.16;5112919;28;20032;-42
2022/07/23 09:21:35;;;;;;;13.18;7.43;;;;;;;20.74;63.88;101890.63;5112507;28;20118;-42
2022/07/23 09:24:05;;;;;;;12.55;6.88;;;;;;;20.97;65.18;101877.59;5112381;28;20030;-40
2022/07/23 09:26:46;;;;;;;14.55;7.38;;;;;;;21.10;64.23;101870.63;5112519;28;20032;-45
2022/07/23 09:29:18;;;;;;;12.57;7.53;;;;;;;21.24;62.84;101875.91;5112066;28;20479;-44
2022/07/23 09:31:45;;;;;;;13.73;7.47;;;;;;;21.27;61.83;101870.66;5112516;28;20028;-41
2022/07/23 09:34:25;;;;;;;12.43;6.50;;;;;;;21.37;62.32;101872.41;5112553;28;20030;-43
2022/07/23 09:36:56;;;;;;;11.60;6.90;;;;;;;21.52;62.90;101875.91;5111716;28;20118;-47
2022/07/23 09:39:28;;;;;;;11.85;6.78;;;;;;;21.78;60.99;101883.84;5112287;28;20383;-43
2022/07/23 09:41:54;;;;;;;12.23;7.20;;;;;;;21.73;59.62;101879.44;5114479;28;20035;-44
2022/07/23 09:44:20;;;;;;;11.93;6.65;;;;;;;22.06;61.00;101889.03;5115221;28;20060;-42
2022/07/23 09:46:56;;;;;;;12.63;6.88;;;;;;;22.25;58.75;101891.66;5116045;28;20363;-43
2022/07/23 09:49:23;;;;;;;11.45;6.85;;;;;;;22.28;56.64;101889.88;5115694;28;20386;-41
2022/07/23 09:51:53;;;;;;;14.55;6.53;;;;;;;22.46;58.86;101893.34;5115460;28;20035;-47
2022/07/23 09:54:29;;;;;;;12.43;6.93;;;;;;;22.87;57.74;101889.69;5115943;28;20023;-48
2022/07/23 09:56:55;;;;;;;11.35;6.43;;;;;;;23.29;56.83;101882.47;5115558;28;20032;-47
2022/07/23 09:59:26;;;;;;;15.13;6.65;;;;;;;23.75;54.43;101896.13;5115377;28;20043;-45
2022/07/23 10:01:58;;;;;;;9.88;6.18;;;;;;;24.25;52.80;101891.31;5115774;28;20095;-45
2022/07/23 10:04:24;;;;;;;9.15;5.53;;;;;;;24.55;51.72;101890.06;5115219;28;20039;-47
2022/07/23 10:06:56;;;;;;;10.32;5.25;;;;;;;25.09;51.16;101885.88;5115659;28;20035;-44
2022/07/23 10:09:28;;;;;;;10.73;5.63;;;;;;;25.05;50.50;101889.41;5115442;28;20024;-47
2022/07/23 10:12:01;;;;;;;8.60;4.90;;;;;;;25.40;47.62;101893.34;5114795;28;20063;-43
2022/07/23 10:14:27;;;;;;;8.32;5.25;;;;;;;25.79;46.93;101883.00;5115378;28;20100;-42
2022/07/23 10:16:52;;;;;;;7.72;4.38;;;;;;;26.36;45.06;101883.75;5115617;28;20035;-46
2022/07/23 10:19:19;;;;;;;12.30;4.90;;;;;;;26.56;44.42;101885.97;5114597;28;20131;-46
2022/07/23 10:21:51;;;;;;;9.68;4.97;;;;;;;27.05;43.47;101887.56;5115580;28;20031;-43
2022/07/23 10:24:54;;;;;;;11.70;5.00;;;;;;;27.33;45.69;101891.34;5114952;28;20026;-42
2022/07/23 10:27:52;;;;;;;7.60;4.53;;;;;;;28.30;45.07;101895.94;5115020;28;20074;-42
2022/07/23 10:30:41;;;;;;;11.23;4.53;;;;;;;29.14;40.04;101887.28;5115058;28;20034;-43
2022/07/23 10:33:44;;;;;;;7.85;4.93;;;;;;;29.53;41.33;101894.00;5114447;28;20031;-41
2022/07/23 10:36:31;;;;;;;13.25;4.32;;;;;;;29.83;37.97;101896.53;5114886;28;20356;-43
2022/07/23 10:39:08;;;;;;;18.55;5.88;;;;;;;29.87;37.11;101898.16;5114530;28;20072;-43
2022/07/23 10:41:41;;;;;;;7.75;4.57;;;;;;;30.24;36.66;101896.88;5114710;28;20532;-47
2022/07/23 10:44:11;;;;;;;8.48;4.70;;;;;;;29.97;36.14;101893.38;5115075;28;20027;-48
2022/07/23 10:46:55;;;;;;;8.25;4.47;;;;;;;30.77;33.21;101894.91;5114180;28;20402;-44
2022/07/23 10:49:25;;;;;;;9.40;4.90;;;;;;;29.99;34.40;101891.56;5114599;28;20019;-47
2022/07/23 10:52:15;;;;;;;7.10;4.50;;;;;;;30.37;36.90;101887.50;5114403;28;20494;-48
2022/07/23 10:54:42;;;;;;;9.30;4.60;;;;;;;30.99;34.20;101889.63;5114007;28;20502;-48
2022/07/23 10:57:08;;;;;;;;;;;;;;;31.65;35.70;101886.91;5115001;28;20100;-44
2022/07/23 11:00:14;;;;;;;6.80;3.80;;;;;;;31.75;37.80;101895.41;5114483;28;19920;-43
2022/07/23 11:02:41;;;;;;;9.27;3.92;;;;;;;32.42;33.03;101896.00;5114612;28;20125;-45
2022/07/23 11:05:12;;;;;;;9.32;4.68;;;;;;;32.53;31.35;101894.66;5114620;28;20039;-44
2022/07/23 11:08:03;;;;;;;6.68;3.67;;;;;;;32.46;33.67;101902.94;5114004;28;20103;-46
2022/07/23 11:10:51;;;;;;;6.20;4.13;;;;;;;32.81;33.55;101903.09;5114169;28;20047;-44